createdAt,value
2019-01-09T00:01:36.653Z,43.00
2019-01-09T00:04:06.133Z,47.23
2019-01-09T00:06:35.609Z,79.37
2019-01-09T00:09:07.854Z,63.43
2019-01-09T00:11:37.397Z,49.27
2019-01-09T00:14:06.939Z,45.43
2019-01-09T00:16:36.440Z,42.87
2019-01-09T00:19:05.939Z,47.30
2019-01-09T00:21:35.454Z,101.03
2019-01-09T00:24:04.926Z,94.53
2019-01-09T00:26:34.471Z,101.50
2019-01-09T00:29:03.918Z,73.23
2019-01-09T00:31:33.445Z,96.83
2019-01-09T00:34:02.898Z,42.93
2019-01-09T00:36:32.316Z,54.27
2019-01-09T00:39:01.743Z,99.03
2019-01-09T00:41:31.204Z,48.43
2019-01-09T00:44:00.757Z,44.70
2019-01-09T00:46:30.234Z,33.97
2019-01-09T00:48:59.835Z,37.83
2019-01-09T00:51:29.342Z,91.50
2019-01-09T00:53:58.804Z,38.37
2019-01-09T00:56:28.393Z,40.57
2019-01-09T00:58:57.874Z,34.77
2019-01-09T01:01:27.479Z,38.47
2019-01-09T01:04:39.680Z,36.90
2019-01-09T01:08:11.431Z,34.53
2019-01-09T01:11:28.995Z,33.47
2019-01-09T01:14:45.560Z,33.60
2019-01-09T01:17:43.929Z,35.27
2019-01-09T01:20:58.492Z,35.23
2019-01-09T01:24:14.886Z,37.17
2019-01-09T01:27:01.932Z,40.40
2019-01-09T01:30:10.047Z,31.43
2019-01-09T01:33:21.177Z,36.50
2019-01-09T01:36:30.453Z,33.77
2019-01-09T01:39:46.209Z,34.60
2019-01-09T01:42:59.790Z,28.70
2019-01-09T01:45:54.657Z,34.37
2019-01-09T01:49:04.325Z,34.37
2019-01-09T01:52:24.539Z,32.90
2019-01-09T01:55:31.515Z,33.87
2019-01-09T01:58:26.585Z,30.10
2019-01-09T02:01:23.629Z,32.57
2019-01-09T02:04:21.748Z,28.93
2019-01-09T02:07:29.255Z,29.83
2019-01-09T02:10:25.969Z,36.27
2019-01-09T02:13:31.728Z,32.93
2019-01-09T02:16:32.001Z,36.33
2019-01-09T02:19:29.730Z,34.27
2019-01-09T02:22:25.034Z,30.07
2019-01-09T02:25:28.557Z,33.97
2019-01-09T02:28:27.334Z,32.87
2019-01-09T02:31:18.764Z,36.03
2019-01-09T02:33:48.246Z,34.37
2019-01-09T02:36:17.795Z,32.60
2019-01-09T02:39:05.486Z,33.67
2019-01-09T02:41:34.944Z,32.63
2019-01-09T02:44:04.383Z,32.20
2019-01-09T02:46:33.849Z,34.87
2019-01-09T02:49:03.330Z,36.33
2019-01-09T02:51:32.790Z,33.80
2019-01-09T02:54:02.274Z,33.53
2019-01-09T02:56:31.738Z,34.93
2019-01-09T02:59:01.199Z,30.27
2019-01-09T03:01:30.702Z,30.77
2019-01-09T03:04:00.186Z,34.47
2019-01-09T03:06:29.652Z,29.70
2019-01-09T03:08:59.128Z,32.87
2019-01-09T03:11:28.605Z,31.87
2019-01-09T03:13:58.070Z,33.47
2019-01-09T03:16:27.571Z,30.87
2019-01-09T03:18:57.028Z,31.80
2019-01-09T03:21:26.517Z,28.10
2019-01-09T03:23:56.024Z,28.87
2019-01-09T03:26:25.535Z,31.73
2019-01-09T03:28:55.031Z,34.43
2019-01-09T03:31:24.510Z,32.90
2019-01-09T03:33:54.331Z,31.30
2019-01-09T03:36:32.312Z,29.77
2019-01-09T03:38:54.982Z,29.30
2019-01-09T03:41:24.443Z,29.20
2019-01-09T03:43:53.927Z,31.70
2019-01-09T03:46:23.426Z,29.60
2019-01-09T03:48:52.887Z,30.77
2019-01-09T03:51:22.378Z,28.17
2019-01-09T03:53:51.891Z,27.70
2019-01-09T03:56:21.416Z,25.27
2019-01-09T03:58:50.925Z,30.57
2019-01-09T04:01:20.431Z,28.47
2019-01-09T04:03:49.915Z,31.37
2019-01-09T04:06:19.390Z,29.93
2019-01-09T04:08:48.854Z,32.33
2019-01-09T04:11:18.315Z,30.63
2019-01-09T04:13:47.830Z,27.43
2019-01-09T04:16:17.378Z,28.37
2019-01-09T04:18:46.855Z,31.43
2019-01-09T04:21:16.339Z,28.13
2019-01-09T04:23:45.842Z,30.63
2019-01-09T04:26:15.286Z,27.33
2019-01-09T04:28:44.733Z,27.67
2019-01-09T04:31:14.201Z,28.90
2019-01-09T04:33:43.675Z,28.57
2019-01-09T04:36:13.135Z,27.60
2019-01-09T04:38:42.590Z,28.63
2019-01-09T04:41:12.139Z,29.03
2019-01-09T04:43:41.640Z,29.50
2019-01-09T04:46:11.135Z,32.27
2019-01-09T04:48:40.585Z,26.80
2019-01-09T04:51:10.060Z,33.03
2019-01-09T04:53:39.558Z,30.80
2019-01-09T04:56:09.064Z,28.23
2019-01-09T04:58:38.525Z,34.03
2019-01-09T05:01:08.074Z,30.67
2019-01-09T05:03:37.564Z,30.67
2019-01-09T05:06:07.083Z,29.87
2019-01-09T05:08:36.546Z,33.20
2019-01-09T05:11:06.030Z,27.00
2019-01-09T05:13:35.579Z,32.23
2019-01-09T05:16:05.069Z,29.87
2019-01-09T05:18:34.599Z,27.63
2019-01-09T05:21:04.068Z,27.13
2019-01-09T05:23:33.558Z,26.67
2019-01-09T05:26:03.084Z,25.87
2019-01-09T05:28:32.542Z,25.07
2019-01-09T05:31:07.405Z,23.27
2019-01-09T05:33:33.337Z,29.57
2019-01-09T05:36:02.827Z,27.30
2019-01-09T05:38:32.304Z,25.47
2019-01-09T05:41:01.841Z,26.87
2019-01-09T05:43:31.389Z,24.37
2019-01-09T05:46:00.872Z,26.70
2019-01-09T05:48:30.292Z,24.33
2019-01-09T05:50:59.809Z,27.73
2019-01-09T05:53:29.302Z,29.80
2019-01-09T05:55:58.773Z,25.17
2019-01-09T05:58:28.277Z,25.60
2019-01-09T06:00:57.773Z,24.30
2019-01-09T06:03:27.262Z,26.17
2019-01-09T06:05:56.780Z,25.40
2019-01-09T06:08:26.259Z,24.33
2019-01-09T06:10:55.722Z,22.23
2019-01-09T06:13:25.179Z,25.60
2019-01-09T06:15:54.653Z,24.97
2019-01-09T06:18:24.167Z,26.53
2019-01-09T06:20:53.628Z,29.87
2019-01-09T06:23:23.118Z,29.97
2019-01-09T06:25:52.580Z,30.73
2019-01-09T06:28:22.068Z,33.33
2019-01-09T06:30:51.561Z,33.77
2019-01-09T06:33:21.060Z,31.60
2019-01-09T06:35:50.548Z,36.30
2019-01-09T06:38:20.174Z,38.10
2019-01-09T06:40:49.687Z,41.27
2019-01-09T06:43:19.192Z,44.97
2019-01-09T06:45:48.702Z,42.00
2019-01-09T06:48:18.233Z,39.67
2019-01-09T06:50:47.730Z,38.43
2019-01-09T06:53:17.266Z,34.97
2019-01-09T06:55:46.800Z,34.57
2019-01-09T06:58:16.459Z,36.63
2019-01-09T07:00:45.972Z,36.73
2019-01-09T07:03:15.474Z,30.63
2019-01-09T07:05:44.983Z,34.83
2019-01-09T07:08:14.451Z,33.43
2019-01-09T07:10:43.923Z,33.23
2019-01-09T07:13:13.346Z,33.77
2019-01-09T07:15:42.814Z,33.07
2019-01-09T07:18:12.317Z,35.00
2019-01-09T07:20:41.748Z,30.87
2019-01-09T07:23:11.274Z,41.67
2019-01-09T07:25:40.788Z,33.93
2019-01-09T07:28:10.298Z,35.23
2019-01-09T07:30:39.821Z,36.33
2019-01-09T07:33:09.304Z,37.13
2019-01-09T07:35:38.808Z,26.53
2019-01-09T07:38:08.304Z,25.43
2019-01-09T07:40:37.782Z,24.57
2019-01-09T07:43:07.256Z,26.57
2019-01-09T07:45:36.765Z,21.03
2019-01-09T07:48:06.233Z,21.57
2019-01-09T07:50:35.722Z,21.10
2019-01-09T07:53:05.327Z,23.80
2019-01-09T07:55:34.817Z,21.80
2019-01-09T07:58:04.354Z,19.47
2019-01-09T08:00:33.828Z,21.03
2019-01-09T08:03:03.316Z,22.43
2019-01-09T08:05:32.788Z,23.47
2019-01-09T08:08:02.198Z,26.70
2019-01-09T08:10:31.602Z,59.80
2019-01-09T08:13:01.058Z,79.30
2019-01-09T08:15:30.536Z,78.63
2019-01-09T08:18:00.048Z,71.87
2019-01-09T08:20:29.530Z,83.27
2019-01-09T08:22:59.023Z,80.73
2019-01-09T08:25:28.538Z,80.40
2019-01-09T08:27:58.004Z,79.43
2019-01-09T08:30:27.605Z,80.10
2019-01-09T08:32:57.102Z,78.40
2019-01-09T08:35:26.588Z,74.07
2019-01-09T08:38:02.619Z,72.67
2019-01-09T08:40:27.234Z,64.90
2019-01-09T08:42:56.870Z,59.23
2019-01-09T08:45:26.337Z,59.60
2019-01-09T08:47:55.862Z,57.63
2019-01-09T08:50:25.327Z,54.13
2019-01-09T08:52:54.809Z,52.27
2019-01-09T08:55:24.255Z,50.33
2019-01-09T08:57:53.762Z,49.50
2019-01-09T09:00:23.259Z,47.87
2019-01-09T09:02:52.751Z,48.73
2019-01-09T09:05:22.238Z,46.03
2019-01-09T09:08:02.042Z,52.93
2019-01-09T09:10:31.573Z,50.30
2019-01-09T09:13:01.102Z,51.97
2019-01-09T09:15:30.606Z,49.00
2019-01-09T09:18:00.083Z,54.23
2019-01-09T09:20:29.574Z,54.83
2019-01-09T09:22:59.052Z,50.17
2019-01-09T09:25:28.649Z,51.80
2019-01-09T09:27:58.330Z,52.60
2019-01-09T09:30:27.846Z,51.43
2019-01-09T09:32:57.350Z,50.40
2019-01-09T09:35:26.951Z,52.47
2019-01-09T09:37:56.406Z,54.73
2019-01-09T09:40:25.883Z,51.27
2019-01-09T09:42:55.333Z,55.27
2019-01-09T09:45:24.830Z,50.93
2019-01-09T09:47:54.311Z,49.37
2019-01-09T09:50:23.781Z,52.80
2019-01-09T09:52:53.287Z,51.93
2019-01-09T09:55:22.725Z,45.93
2019-01-09T09:57:52.195Z,53.37
2019-01-09T10:00:22.439Z,42.40
2019-01-09T10:02:51.976Z,45.80
2019-01-09T10:05:21.465Z,41.60
2019-01-09T10:07:51.401Z,44.77
2019-01-09T10:10:20.959Z,39.60
2019-01-09T10:12:50.830Z,39.80
2019-01-09T10:15:20.512Z,40.77
2019-01-09T10:17:50.180Z,42.77
2019-01-09T10:20:19.896Z,37.57
2019-01-09T10:22:49.616Z,37.57
2019-01-09T10:25:21.031Z,38.13
2019-01-09T10:27:51.376Z,41.93
2019-01-09T10:30:21.401Z,37.50
2019-01-09T10:32:50.866Z,40.77
2019-01-09T10:35:20.413Z,42.83
2019-01-09T10:37:50.107Z,41.40
2019-01-09T10:40:20.285Z,48.60
2019-01-09T10:42:49.735Z,47.23
2019-01-09T10:45:21.024Z,45.70
2019-01-09T10:47:50.539Z,45.50
2019-01-09T10:50:20.162Z,43.93
2019-01-09T10:52:49.652Z,42.67
2019-01-09T10:55:19.600Z,44.50
2019-01-09T10:57:49.129Z,45.80
2019-01-09T11:00:23.903Z,45.20
2019-01-09T11:02:54.056Z,45.03
2019-01-09T11:05:23.742Z,37.27
2019-01-09T11:07:53.361Z,39.33
2019-01-09T11:10:23.038Z,46.87
2019-01-09T11:12:52.529Z,41.17
2019-01-09T11:15:22.047Z,42.07
2019-01-09T11:17:51.492Z,37.60
2019-01-09T11:20:21.893Z,40.77
2019-01-09T11:22:51.433Z,36.23
2019-01-09T11:25:23.373Z,38.37
2019-01-09T11:27:52.918Z,32.87
2019-01-09T11:30:22.371Z,40.03
2019-01-09T11:32:51.803Z,36.97
2019-01-09T11:35:23.302Z,36.87
2019-01-09T11:37:53.298Z,35.67
2019-01-09T11:40:23.063Z,35.07
2019-01-09T11:42:52.572Z,32.60
2019-01-09T11:45:22.111Z,36.70
2019-01-09T11:47:51.615Z,30.80
2019-01-09T11:50:21.275Z,32.97
2019-01-09T11:52:50.751Z,29.13
2019-01-09T11:55:20.225Z,31.43
2019-01-09T11:57:49.723Z,30.00
2019-01-09T12:00:27.611Z,30.37
2019-01-09T12:02:57.228Z,37.17
2019-01-09T12:05:26.733Z,35.60
2019-01-09T12:07:56.277Z,31.33
2019-01-09T12:10:30.168Z,36.37
2019-01-09T12:12:57.662Z,30.70
2019-01-09T12:15:27.143Z,29.53
2019-01-09T12:17:56.623Z,29.77
2019-01-09T12:20:26.080Z,32.93
2019-01-09T12:22:55.571Z,32.33
2019-01-09T12:25:25.124Z,32.67
2019-01-09T12:27:54.714Z,31.40
2019-01-09T12:30:29.011Z,33.03
2019-01-09T12:39:28.440Z,33.37
2019-01-09T12:41:57.920Z,34.00
2019-01-09T12:44:27.396Z,37.13
2019-01-09T12:46:56.959Z,34.57
2019-01-09T12:49:26.522Z,32.97
2019-01-09T12:51:56.118Z,32.97
2019-01-09T12:54:26.376Z,39.50
2019-01-09T12:56:55.899Z,36.30
2019-01-09T12:59:25.393Z,39.23
2019-01-09T13:01:55.021Z,36.20
2019-01-09T13:04:24.523Z,39.83
2019-01-09T13:06:53.994Z,40.47
2019-01-09T13:09:23.752Z,36.97
2019-01-09T13:11:53.985Z,38.30
2019-01-09T13:14:23.468Z,34.37
2019-01-09T13:16:52.930Z,34.33
2019-01-09T13:19:22.458Z,32.67
2019-01-09T13:21:52.064Z,31.73
2019-01-09T13:24:21.615Z,29.87
2019-01-09T13:29:34.270Z,25.27
2019-01-09T13:32:03.861Z,22.57
2019-01-09T13:34:33.580Z,22.03
2019-01-09T13:37:03.109Z,20.67
2019-01-09T13:39:32.580Z,21.50
2019-01-09T13:42:02.294Z,23.87
2019-01-09T13:44:31.996Z,22.00
2019-01-09T13:47:01.461Z,20.90
2019-01-09T13:49:31.191Z,20.13
2019-01-09T13:52:00.692Z,21.83
2019-01-09T13:54:30.302Z,19.37
2019-01-09T13:57:00.581Z,21.30
2019-01-09T13:59:30.572Z,21.10
2019-01-09T14:02:01.245Z,19.70
2019-01-09T14:04:31.177Z,23.90
2019-01-09T14:07:01.809Z,24.60
2019-01-09T14:09:39.450Z,25.20
2019-01-09T14:12:03.607Z,25.57
2019-01-09T14:14:33.264Z,23.03
2019-01-09T14:17:02.852Z,23.17
2019-01-09T14:19:32.652Z,26.03
2019-01-09T14:22:02.458Z,23.70
2019-01-09T14:24:32.532Z,26.47
2019-01-09T14:27:04.211Z,29.93
2019-01-09T14:29:34.125Z,29.53
2019-01-09T14:32:04.175Z,27.70
2019-01-09T14:34:36.189Z,25.30
2019-01-09T14:37:06.187Z,25.00
2019-01-09T14:39:35.784Z,25.97
2019-01-09T14:42:05.270Z,23.07
2019-01-09T14:44:34.757Z,20.87
2019-01-09T14:47:04.684Z,19.00
2019-01-09T14:49:37.801Z,18.93
2019-01-09T14:52:07.401Z,18.27
2019-01-09T14:54:36.925Z,17.23
2019-01-09T15:09:42.923Z,18.30
2019-01-09T15:12:12.645Z,17.53
2019-01-09T15:14:42.085Z,16.07
2019-01-09T15:17:11.653Z,15.07
2019-01-09T15:19:41.317Z,15.03
2019-01-09T15:22:10.885Z,16.80
2019-01-09T15:24:40.518Z,16.00
2019-01-09T15:27:09.985Z,14.87
2019-01-09T15:29:39.528Z,15.53
2019-01-09T15:32:09.096Z,16.67
2019-01-09T15:34:38.784Z,14.97
2019-01-09T15:37:08.325Z,17.17
2019-01-09T15:39:37.937Z,14.53
2019-01-09T15:42:07.530Z,15.93
2019-01-09T15:44:37.009Z,15.23
2019-01-09T15:49:38.931Z,14.40
2019-01-09T15:52:09.113Z,12.13
2019-01-09T15:54:40.697Z,14.67
2019-01-09T15:57:25.902Z,13.57
2019-01-09T16:00:09.631Z,14.13
2019-01-09T16:02:39.585Z,13.73
2019-01-09T16:05:09.622Z,14.03
2019-01-09T16:07:45.376Z,15.10
2019-01-09T16:10:20.919Z,13.80
2019-01-09T16:13:01.805Z,16.23
2019-01-09T16:15:35.685Z,13.97
2019-01-09T16:18:08.202Z,15.37
2019-01-09T16:20:47.477Z,15.17
2019-01-09T16:23:21.901Z,16.70
2019-01-09T16:25:53.794Z,13.87
2019-01-09T16:28:25.495Z,17.10
2019-01-09T16:31:13.341Z,15.53
2019-01-09T16:33:54.193Z,18.33
2019-01-09T16:36:25.028Z,14.70
2019-01-09T16:38:55.522Z,17.50
2019-01-09T16:41:25.124Z,16.13
2019-01-09T16:43:54.844Z,22.37
2019-01-09T16:46:24.458Z,19.83
2019-01-09T16:48:54.800Z,19.03
2019-01-09T16:51:24.314Z,20.17
2019-01-09T16:53:53.872Z,18.73
2019-01-09T16:56:23.383Z,18.80
2019-01-09T16:58:53.066Z,20.80
2019-01-09T17:01:22.625Z,17.60
2019-01-09T17:03:52.269Z,20.47
2019-01-09T17:06:21.762Z,16.43
2019-01-09T17:08:51.318Z,14.67
2019-01-09T17:11:20.781Z,15.17
2019-01-09T17:13:50.352Z,16.80
2019-01-09T17:16:19.829Z,15.90
2019-01-09T17:18:49.300Z,17.83
2019-01-09T17:21:18.836Z,14.73
2019-01-09T17:23:48.406Z,15.13
2019-01-09T17:26:17.935Z,15.60
2019-01-09T17:28:47.500Z,17.30
2019-01-09T17:31:16.989Z,16.43
2019-01-09T17:33:46.500Z,15.93
2019-01-09T17:36:16.101Z,15.30
2019-01-09T17:38:45.652Z,16.13
2019-01-09T17:41:15.167Z,16.43
2019-01-09T17:43:44.822Z,15.03
2019-01-09T17:46:14.593Z,14.33
2019-01-09T17:48:44.829Z,13.47
2019-01-09T17:51:14.873Z,11.83
2019-01-09T17:53:44.506Z,16.77
2019-01-09T17:56:14.113Z,13.00
2019-01-09T17:58:43.591Z,14.47
2019-01-09T18:01:13.102Z,17.63
2019-01-09T18:03:42.738Z,12.67
2019-01-09T18:06:12.362Z,12.60
2019-01-09T18:08:41.885Z,12.40
2019-01-09T18:11:11.400Z,12.87
2019-01-09T18:13:40.975Z,14.40
2019-01-09T18:16:10.640Z,19.63
2019-01-09T18:18:40.412Z,15.30
2019-01-09T18:21:10.015Z,15.87
2019-01-09T18:23:39.511Z,16.13
2019-01-09T18:26:09.178Z,14.10
2019-01-09T18:28:38.727Z,17.33
2019-01-09T18:32:02.145Z,12.17
2019-01-09T18:34:36.526Z,14.27
2019-01-09T18:37:50.052Z,13.67
2019-01-09T18:41:15.518Z,14.27
2019-01-09T18:44:17.671Z,13.67
2019-01-09T18:47:10.632Z,14.73
2019-01-09T18:50:22.688Z,16.00
2019-01-09T18:53:18.332Z,17.13
2019-01-09T18:55:48.854Z,17.07
2019-01-09T18:58:18.516Z,15.80
2019-01-09T19:00:48.948Z,17.33
2019-01-09T19:03:18.596Z,15.03
2019-01-09T19:05:48.124Z,16.50
2019-01-09T19:08:17.653Z,15.97
2019-01-09T19:10:47.259Z,18.77
2019-01-09T19:13:16.932Z,20.47
2019-01-09T19:15:47.496Z,20.40
2019-01-09T19:18:16.988Z,20.07
2019-01-09T19:20:46.644Z,17.33
2019-01-09T19:23:16.252Z,17.40
2019-01-09T19:25:49.001Z,20.13
2019-01-09T19:28:18.538Z,22.13
2019-01-09T19:30:48.989Z,16.90
2019-01-09T19:33:18.834Z,24.57
2019-01-09T19:35:48.422Z,19.87
2019-01-09T19:38:18.149Z,18.27
2019-01-09T19:40:47.650Z,19.33
2019-01-09T19:43:17.215Z,19.87
2019-01-09T19:45:46.918Z,19.87
2019-01-09T19:48:18.768Z,21.03
2019-01-09T19:50:48.451Z,21.50
2019-01-09T19:53:18.158Z,18.83
2019-01-09T19:55:48.288Z,21.13
2019-01-09T19:58:18.139Z,21.33
2019-01-09T20:00:47.673Z,20.20
2019-01-09T20:03:18.586Z,19.70
2019-01-09T20:05:48.506Z,22.37
2019-01-09T20:08:17.997Z,22.00
2019-01-09T20:10:47.684Z,21.27
2019-01-09T20:13:17.204Z,22.73
2019-01-09T20:15:46.784Z,24.47
2019-01-09T20:18:16.314Z,24.23
2019-01-09T20:20:47.260Z,21.83
2019-01-09T20:23:16.701Z,22.40
2019-01-09T20:25:46.486Z,24.80
2019-01-09T20:28:15.998Z,24.80
2019-01-09T20:30:45.588Z,22.97
2019-01-09T20:33:15.162Z,23.57
2019-01-09T20:35:44.775Z,26.47
2019-01-09T20:38:17.120Z,26.47
2019-01-09T20:40:46.781Z,29.03
2019-01-09T20:43:16.702Z,31.90
2019-01-09T20:45:46.361Z,36.67
2019-01-09T20:48:16.293Z,42.63
2019-01-09T20:50:45.931Z,44.93
2019-01-09T20:53:15.653Z,48.10
2019-01-09T20:55:45.174Z,45.87
2019-01-09T20:58:14.769Z,49.30
2019-01-09T21:00:44.403Z,51.03
2019-01-09T21:03:14.330Z,46.83
2019-01-09T21:05:46.785Z,46.20
2019-01-09T21:08:16.482Z,47.60
2019-01-09T21:10:45.942Z,47.70
2019-01-09T21:13:15.450Z,46.47
2019-01-09T21:15:44.946Z,45.60
2019-01-09T21:18:14.392Z,44.43
2019-01-09T21:20:44.366Z,45.83
2019-01-09T21:23:13.932Z,39.23
2019-01-09T21:25:43.410Z,45.57
2019-01-09T21:28:12.890Z,41.67
2019-01-09T21:30:42.398Z,40.77
2019-01-09T21:33:11.898Z,39.57
2019-01-09T21:35:41.718Z,36.33
2019-01-09T21:38:11.201Z,38.47
2019-01-09T21:40:40.675Z,35.43
2019-01-09T21:43:10.256Z,29.47
2019-01-09T21:45:39.715Z,30.13
2019-01-09T21:48:09.178Z,27.37
2019-01-09T21:50:38.623Z,29.23
2019-01-09T21:53:08.152Z,29.43
2019-01-09T21:55:37.630Z,26.67
2019-01-09T21:58:07.082Z,28.70
2019-01-09T22:00:36.643Z,27.43
2019-01-09T22:03:06.236Z,26.97
2019-01-09T22:05:35.669Z,29.93
2019-01-09T22:08:08.377Z,26.83
2019-01-09T22:10:38.634Z,25.03
2019-01-09T22:13:08.771Z,29.87
2019-01-09T22:15:38.341Z,29.30
2019-01-09T22:18:07.790Z,28.87
2019-01-09T22:20:37.340Z,33.20
2019-01-09T22:23:06.900Z,40.73
2019-01-09T22:25:36.316Z,40.70
2019-01-09T22:28:05.990Z,51.43
2019-01-09T22:30:35.509Z,52.17
2019-01-09T22:33:05.232Z,52.00
2019-01-09T22:35:41.424Z,56.23
2019-01-09T22:38:06.346Z,52.40
2019-01-09T22:40:35.821Z,60.37
2019-01-09T22:43:05.709Z,54.90
2019-01-09T22:45:35.180Z,55.17
2019-01-09T22:48:04.638Z,60.07
2019-01-09T22:50:34.087Z,54.03
2019-01-09T22:53:03.578Z,54.67
2019-01-09T22:55:33.051Z,55.13
2019-01-09T22:58:02.513Z,47.83
2019-01-09T23:00:50.628Z,55.57
2019-01-09T23:03:20.096Z,50.77
2019-01-09T23:05:49.595Z,49.23
2019-01-09T23:08:19.070Z,49.67
2019-01-09T23:10:54.288Z,48.47
2019-01-09T23:13:19.737Z,51.30
2019-01-09T23:15:50.399Z,56.37
2019-01-09T23:18:19.970Z,51.67
2019-01-09T23:20:49.583Z,53.57
2019-01-09T23:23:19.027Z,49.87
2019-01-09T23:25:48.552Z,54.10
2019-01-09T23:28:18.235Z,44.93
2019-01-09T23:30:47.742Z,46.00
2019-01-09T23:33:17.383Z,42.97
2019-01-09T23:35:46.889Z,43.37
2019-01-09T23:38:16.530Z,42.70
2019-01-09T23:40:45.993Z,46.63
2019-01-09T23:43:15.510Z,43.93
2019-01-09T23:45:44.963Z,46.40
2019-01-09T23:48:14.399Z,43.43
2019-01-09T23:50:43.858Z,43.00
2019-01-09T23:53:13.298Z,41.80
2019-01-09T23:55:42.961Z,40.07
2019-01-09T23:58:12.515Z,39.03
